Time;durP1;ratioP1;P1;durP2;ratioP2;P2;SDS_P1;SDS_P2;PMS_P1;PMS_P2;Temp;Humidity;BMP_temperature;BMP_pressure;BME280_temperature;BME280_humidity;BME280_pressure;Samples;Min_cycle;Max_cycle;Signal;HPM_P1;HPM_P2
2023/04/30 00:00:24;;;;;;;;;;;8.20;99.90;;;;;;5091937;28;20016;-73
2023/04/30 00:02:50;;;;;;;;;;;8.20;99.90;;;;;;5094734;28;19930;-73
2023/04/30 00:05:15;;;;;;;;;;;8.20;99.90;;;;;;5093086;28;19946;-73
2023/04/30 00:07:41;;;;;;;;;;;8.10;99.90;;;;;;5092354;28;20436;-73
2023/04/30 00:10:10;;;;;;;;;;;8.10;99.90;;;;;;5092851;28;20014;-73
2023/04/30 00:12:35;;;;;;;;;;;8.10;99.90;;;;;;5092881;28;20293;-73
2023/04/30 00:15:01;;;;;;;;;;;8.00;99.90;;;;;;5092939;28;20007;-73
2023/04/30 00:17:26;;;;;;;;;;;8.00;99.90;;;;;;5093050;28;19928;-73
2023/04/30 00:19:52;;;;;;;;;;;7.90;99.90;;;;;;5090061;28;19924;-73
2023/04/30 00:22:18;;;;;;;;;;;7.90;99.90;;;;;;5092572;28;19932;-73
2023/04/30 00:24:43;;;;;;;;;;;7.90;99.90;;;;;;5093279;28;19924;-73
2023/04/30 00:27:09;;;;;;;;;;;7.80;99.90;;;;;;5089151;28;19971;-73
2023/04/30 00:29:34;;;;;;;;;;;7.80;99.90;;;;;;5089707;28;20014;-73
2023/04/30 00:32:00;;;;;;;;;;;7.80;99.90;;;;;;5091251;28;19979;-73
2023/04/30 00:34:25;;;;;;;;;;;7.80;99.90;;;;;;5091418;28;19932;-73
2023/04/30 00:36:51;;;;;;;;;;;7.80;99.90;;;;;;5093904;28;19924;-73
2023/04/30 00:39:17;;;;;;;;;;;7.80;99.90;;;;;;5091118;28;19924;-73
2023/04/30 00:41:42;;;;;;;;;;;7.70;99.90;;;;;;5093751;28;19971;-74
2023/04/30 00:44:08;;;;;;;;;;;7.70;99.90;;;;;;5092940;28;19947;-74
2023/04/30 00:46:33;;;;;;;;;;;7.70;99.90;;;;;;5093010;28;19924;-73
2023/04/30 00:49:03;;;;;;;;;;;7.60;99.90;;;;;;5090777;28;19931;-73
2023/04/30 00:51:30;;;;;;;;;;;7.60;99.90;;;;;;5072389;28;19978;-73
2023/04/30 00:53:57;;;;;;;;;;;7.60;99.90;;;;;;5090323;28;20404;-73
2023/04/30 00:56:22;;;;;;;;;;;7.60;99.90;;;;;;5090384;28;19964;-73
2023/04/30 00:58:48;;;;;;;;;;;7.60;99.90;;;;;;5091176;28;20024;-74
2023/04/30 01:01:14;;;;;;;;;;;7.50;99.90;;;;;;5089897;28;19925;-73
2023/04/30 01:03:41;;;;;;;;;;;7.50;99.90;;;;;;5089289;28;19932;-73
2023/04/30 01:06:06;;;;;;;;;;;7.50;99.90;;;;;;5090612;28;20016;-73
2023/04/30 01:08:32;;;;;;;;;;;7.50;99.90;;;;;;5091037;28;20429;-73
2023/04/30 01:11:08;;;;;;;;;;;7.40;99.90;;;;;;5090442;28;19924;-74
2023/04/30 01:13:39;;;;;;;;;;;7.30;99.90;;;;;;5089275;28;20056;-73
2023/04/30 01:16:15;;;;;;;;;;;7.30;99.90;;;;;;5088695;28;19923;-73
2023/04/30 01:18:42;;;;;;;;;;;7.20;99.90;;;;;;5090767;28;19924;-73
2023/04/30 01:21:08;;;;;;;;;;;7.20;99.90;;;;;;5091461;28;19924;-73
2023/04/30 01:23:33;;;;;;;;;;;7.10;99.90;;;;;;5089176;28;20054;-72
2023/04/30 01:26:02;;;;;;;;;;;7.20;99.90;;;;;;5090400;28;20006;-73
2023/04/30 01:28:27;;;;;;;;;;;7.10;99.90;;;;;;5089338;28;19928;-73
2023/04/30 01:30:53;;;;;;;;;;;7.20;99.90;;;;;;5089760;28;20301;-73
2023/04/30 01:33:18;;;;;;;;;;;7.10;99.90;;;;;;5089700;28;19928;-73
2023/04/30 01:35:53;;;;;;;;;;;7.10;99.90;;;;;;5090351;28;19924;-73
2023/04/30 01:38:21;;;;;;;;;;;7.10;99.90;;;;;;5090113;28;20291;-73
2023/04/30 01:40:50;;;;;;;;;;;7.10;99.90;;;;;;5091592;28;19924;-73
2023/04/30 01:43:30;;;;;;;;;;;7.10;99.90;;;;;;5092044;28;19924;-73
2023/04/30 01:46:04;;;;;;;;;;;7.00;99.90;;;;;;5090757;28;19963;-73
2023/04/30 01:48:45;;;;;;;;;;;7.00;99.90;;;;;;5089273;28;19932;-73
2023/04/30 01:51:18;;;;;;;;;;;7.00;99.90;;;;;;5093917;28;20684;-73
2023/04/30 01:53:45;;;;;;;;;;;7.00;99.90;;;;;;5093853;28;19924;-73
2023/04/30 01:56:29;;;;;;;;;;;6.90;99.90;;;;;;5091561;28;20023;-73
2023/04/30 01:58:55;;;;;;;;;;;6.90;99.90;;;;;;5089494;28;19931;-73
2023/04/30 02:01:24;;;;;;;;;;;6.90;99.90;;;;;;5088984;28;19924;-73
2023/04/30 02:03:50;;;;;;;;;;;6.90;99.90;;;;;;5089043;28;19924;-73
2023/04/30 02:06:15;;;;;;;;;;;6.80;99.90;;;;;;5087466;28;20029;-73
2023/04/30 02:08:41;;;;;;;;;;;6.80;99.90;;;;;;5088984;28;19932;-73
2023/04/30 02:11:06;;;;;;;;;;;6.80;99.90;;;;;;5092699;28;19931;-73
2023/04/30 02:13:32;;;;;;;;;;;6.80;99.90;;;;;;5093082;28;19928;-73
2023/04/30 02:15:57;;;;;;;;;;;6.70;99.90;;;;;;5091499;28;19924;-73
2023/04/30 02:18:23;;;;;;;;;;;6.70;99.90;;;;;;5088743;28;19924;-73
2023/04/30 02:20:48;;;;;;;;;;;6.70;99.90;;;;;;5088926;28;19924;-73
2023/04/30 02:23:14;;;;;;;;;;;6.70;99.90;;;;;;5093226;28;19932;-73
2023/04/30 02:25:40;;;;;;;;;;;6.70;99.90;;;;;;5093212;28;19930;-73
2023/04/30 02:28:06;;;;;;;;;;;6.70;99.90;;;;;;5093291;28;20301;-72
2023/04/30 02:30:31;;;;;;;;;;;6.60;99.90;;;;;;5091389;28;19938;-73
2023/04/30 02:32:57;;;;;;;;;;;6.60;99.90;;;;;;5096499;28;19928;-73
2023/04/30 02:35:22;;;;;;;;;;;6.60;99.90;;;;;;5076788;28;19969;-73
2023/04/30 02:37:48;;;;;;;;;;;6.60;99.90;;;;;;5101328;28;19924;-73
2023/04/30 02:40:13;;;;;;;;;;;6.60;99.90;;;;;;5097716;28;19924;-73
2023/04/30 02:42:39;;;;;;;;;;;6.60;99.90;;;;;;5089445;28;20015;-73
2023/04/30 02:45:04;;;;;;;;;;;6.60;99.90;;;;;;5093008;28;19973;-73
2023/04/30 02:47:30;;;;;;;;;;;6.50;99.90;;;;;;5088933;28;20355;-73
2023/04/30 02:49:56;;;;;;;;;;;6.50;99.90;;;;;;5092313;28;19924;-73
2023/04/30 02:52:21;;;;;;;;;;;6.50;99.90;;;;;;5093653;28;19924;-73
2023/04/30 02:54:47;;;;;;;;;;;6.50;99.90;;;;;;5092735;28;20340;-73
2023/04/30 02:57:12;;;;;;;;;;;6.40;99.90;;;;;;5091383;28;20441;-73
2023/04/30 02:59:38;;;;;;;;;;;6.40;99.90;;;;;;5097240;28;19924;-73
2023/04/30 03:02:03;;;;;;;;;;;6.40;99.90;;;;;;5097065;28;20259;-73
2023/04/30 03:04:29;;;;;;;;;;;6.40;99.90;;;;;;5093518;28;20328;-73
2023/04/30 03:06:54;;;;;;;;;;;6.40;99.90;;;;;;5099631;28;20351;-72
2023/04/30 03:09:20;;;;;;;;;;;6.30;99.90;;;;;;5094803;28;19931;-73
2023/04/30 03:11:45;;;;;;;;;;;6.30;99.90;;;;;;5100489;28;20372;-73
2023/04/30 03:14:11;;;;;;;;;;;6.30;99.90;;;;;;5092829;28;19990;-73
2023/04/30 03:16:36;;;;;;;;;;;6.30;99.90;;;;;;5101639;28;19927;-73
2023/04/30 03:19:02;;;;;;;;;;;6.20;99.90;;;;;;5097504;28;19932;-73
2023/04/30 03:21:27;;;;;;;;;;;6.20;99.90;;;;;;5099810;28;20386;-73
2023/04/30 03:23:53;;;;;;;;;;;6.20;99.90;;;;;;5097347;28;20389;-73
2023/04/30 03:26:19;;;;;;;;;;;6.20;99.90;;;;;;5100812;28;19931;-73
2023/04/30 03:28:45;;;;;;;;;;;6.20;99.90;;;;;;5088599;28;20449;-73
2023/04/30 03:31:10;;;;;;;;;;;6.20;99.90;;;;;;5100036;28;20031;-73
2023/04/30 03:33:36;;;;;;;;;;;6.10;99.90;;;;;;5087586;28;19998;-72
2023/04/30 03:36:01;;;;;;;;;;;6.10;99.90;;;;;;5096001;28;19924;-73
2023/04/30 03:38:27;;;;;;;;;;;6.10;99.90;;;;;;5096445;28;20003;-72
2023/04/30 03:40:52;;;;;;;;;;;6.10;99.90;;;;;;5101096;28;19924;-73
2023/04/30 03:43:18;;;;;;;;;;;6.10;99.90;;;;;;5097579;28;19935;-73
2023/04/30 03:45:43;;;;;;;;;;;6.10;99.90;;;;;;5099393;28;20309;-73
2023/04/30 03:48:09;;;;;;;;;;;6.00;99.90;;;;;;5091555;28;19924;-73
2023/04/30 03:50:34;;;;;;;;;;;6.00;99.90;;;;;;5096252;28;20019;-73
2023/04/30 03:53:00;;;;;;;;;;;6.00;99.90;;;;;;5095200;28;20019;-73
2023/04/30 03:55:25;;;;;;;;;;;6.00;99.90;;;;;;5094970;28;20002;-73
2023/04/30 03:57:51;;;;;;;;;;;6.00;99.90;;;;;;5095564;28;19924;-73
2023/04/30 04:00:17;;;;;;;;;;;5.90;99.90;;;;;;5091692;28;20314;-73
2023/04/30 04:02:42;;;;;;;;;;;5.90;99.90;;;;;;5090147;28;20318;-73
2023/04/30 04:05:08;;;;;;;;;;;6.00;99.90;;;;;;5092313;28;20349;-73
2023/04/30 04:07:33;;;;;;;;;;;6.00;99.90;;;;;;5092454;28;20057;-73
2023/04/30 04:09:59;;;;;;;;;;;6.00;99.90;;;;;;5092328;28;19924;-73
2023/04/30 04:12:25;;;;;;;;;;;5.90;99.90;;;;;;5092781;28;19935;-73
2023/04/30 04:14:51;;;;;;;;;;;5.90;99.90;;;;;;5093646;28;19967;-73
2023/04/30 04:17:16;;;;;;;;;;;5.90;99.90;;;;;;5074022;28;19963;-73
2023/04/30 04:19:42;;;;;;;;;;;5.90;99.90;;;;;;5093484;28;19950;-73
2023/04/30 04:22:07;;;;;;;;;;;5.90;99.90;;;;;;5092098;28;19993;-73
2023/04/30 04:24:34;;;;;;;;;;;5.90;99.90;;;;;;5092637;28;19932;-73
2023/04/30 04:27:01;;;;;;;;;;;5.90;99.90;;;;;;5090760;28;19924;-71
2023/04/30 04:29:27;;;;;;;;;;;5.80;99.90;;;;;;5090850;28;20431;-71
2023/04/30 04:31:54;;;;;;;;;;;5.90;99.90;;;;;;5092067;28;20010;-71
2023/04/30 04:34:19;;;;;;;;;;;5.90;99.90;;;;;;5092154;28;20408;-71
2023/04/30 04:36:45;;;;;;;;;;;5.90;99.90;;;;;;5091115;28;19931;-71
2023/04/30 04:39:10;;;;;;;;;;;5.80;99.90;;;;;;5093160;28;20428;-71
2023/04/30 04:41:36;;;;;;;;;;;5.90;99.90;;;;;;5090365;28;20385;-72
2023/04/30 04:44:02;;;;;;;;;;;5.90;99.90;;;;;;5092665;28;20363;-72
2023/04/30 04:46:30;;;;;;;;;;;5.90;99.90;;;;;;5090143;28;20335;-71
2023/04/30 04:48:56;;;;;;;;;;;6.00;99.90;;;;;;5093014;28;19928;-72
2023/04/30 04:51:22;;;;;;;;;;;6.00;99.90;;;;;;5090268;28;19946;-71
2023/04/30 04:53:47;;;;;;;;;;;6.10;99.90;;;;;;5074295;28;20370;-71
2023/04/30 04:56:13;;;;;;;;;;;6.20;99.90;;;;;;5089807;28;20465;-71
2023/04/30 04:58:38;;;;;;;;;;;6.20;99.90;;;;;;5097838;28;19923;-71
2023/04/30 05:01:04;;;;;;;;;;;6.30;99.90;;;;;;5084313;28;19928;-71
2023/04/30 05:03:31;;;;;;;;;;;6.30;99.90;;;;;;5097764;28;19927;-72
2023/04/30 05:05:57;;;;;;;;;;;6.40;99.90;;;;;;5084496;28;20506;-72
2023/04/30 05:08:22;;;;;;;;;;;6.40;99.90;;;;;;5094044;28;19940;-72
2023/04/30 05:10:48;;;;;;;;;;;6.40;99.90;;;;;;5090525;28;20478;-72
2023/04/30 05:13:13;;;;;;;;;;;6.50;99.90;;;;;;5094173;28;20374;-74
2023/04/30 05:15:39;;;;;;;;;;;6.50;99.90;;;;;;5090240;28;19924;-71
2023/04/30 05:18:04;;;;;;;;;;;6.50;99.90;;;;;;5097840;28;20740;-71
2023/04/30 05:20:30;;;;;;;;;;;6.60;99.90;;;;;;5094219;28;19973;-71
2023/04/30 05:22:55;;;;;;;;;;;6.80;99.90;;;;;;5096761;28;19924;-71
2023/04/30 05:25:21;;;;;;;;;;;6.90;99.90;;;;;;5094902;28;19924;-71
2023/04/30 05:27:46;;;;;;;;;;;7.00;99.90;;;;;;5098068;28;20309;-71
2023/04/30 05:30:14;;;;;;;;;;;7.10;99.90;;;;;;5076420;28;19935;-72
2023/04/30 05:32:40;;;;;;;;;;;7.20;99.90;;;;;;5097897;28;19956;-72
2023/04/30 05:35:06;;;;;;;;;;;7.20;99.90;;;;;;5092433;28;20328;-72
2023/04/30 05:37:31;;;;;;;;;;;7.30;99.90;;;;;;5092701;28;19969;-71
2023/04/30 05:39:57;;;;;;;;;;;7.30;99.90;;;;;;5092616;28;20378;-71
2023/04/30 05:42:22;;;;;;;;;;;7.40;99.90;;;;;;5092376;28;19928;-72
2023/04/30 05:44:48;;;;;;;;;;;7.40;99.90;;;;;;5092263;28;19924;-74
2023/04/30 05:47:14;;;;;;;;;;;7.40;99.90;;;;;;5095765;28;19924;-71
2023/04/30 05:49:39;;;;;;;;;;;7.40;99.90;;;;;;5093669;28;19924;-72
2023/04/30 05:52:05;;;;;;;;;;;7.40;99.90;;;;;;5095471;28;20079;-72
2023/04/30 05:54:30;;;;;;;;;;;7.30;99.90;;;;;;5093014;28;19931;-71
2023/04/30 05:56:56;;;;;;;;;;;7.30;99.90;;;;;;5095406;28;19947;-71
2023/04/30 05:59:21;;;;;;;;;;;7.30;99.90;;;;;;5092654;28;20702;-71
2023/04/30 06:01:47;;;;;;;;;;;7.30;99.90;;;;;;5092066;28;19932;-71
2023/04/30 06:04:13;;;;;;;;;;;7.30;99.90;;;;;;5091315;28;19924;-71
2023/04/30 06:06:38;;;;;;;;;;;7.30;99.90;;;;;;5090482;28;19932;-71
2023/04/30 06:09:04;;;;;;;;;;;7.30;99.90;;;;;;5092567;28;19928;-71
2023/04/30 06:11:30;;;;;;;;;;;7.30;99.90;;;;;;5098890;28;20454;-71
2023/04/30 06:13:55;;;;;;;;;;;7.30;99.90;;;;;;5097338;28;19963;-71
2023/04/30 06:16:21;;;;;;;;;;;7.40;99.90;;;;;;5077601;28;19932;-71
2023/04/30 06:18:46;;;;;;;;;;;7.40;99.90;;;;;;5097610;28;19924;-71
2023/04/30 06:21:12;;;;;;;;;;;7.60;99.90;;;;;;5099361;28;19928;-72
2023/04/30 06:23:37;;;;;;;;;;;7.60;99.90;;;;;;5097821;28;19930;-72
2023/04/30 06:26:03;;;;;;;;;;;7.80;99.90;;;;;;5091148;28;19928;-71
2023/04/30 06:28:29;;;;;;;;;;;7.90;99.90;;;;;;5091482;28;20350;-71
2023/04/30 06:30:54;;;;;;;;;;;8.00;99.90;;;;;;5093051;28;19924;-71
2023/04/30 06:33:20;;;;;;;;;;;8.10;99.90;;;;;;5092278;28;20321;-71
2023/04/30 06:35:46;;;;;;;;;;;8.20;99.90;;;;;;5097389;28;19924;-71
2023/04/30 06:38:12;;;;;;;;;;;8.20;99.90;;;;;;5074163;28;19954;-72
2023/04/30 06:40:38;;;;;;;;;;;8.30;99.90;;;;;;5092399;28;19924;-72
2023/04/30 06:43:03;;;;;;;;;;;8.40;99.90;;;;;;5092168;28;20828;-71
2023/04/30 06:45:29;;;;;;;;;;;8.60;99.90;;;;;;5091071;28;19935;-72
2023/04/30 06:47:54;;;;;;;;;;;8.70;99.90;;;;;;5092127;28;20310;-71
2023/04/30 06:50:23;;;;;;;;;;;8.80;99.90;;;;;;5090419;28;19966;-72
2023/04/30 06:52:48;;;;;;;;;;;8.90;99.90;;;;;;5074166;28;20061;-72
2023/04/30 06:55:14;;;;;;;;;;;9.00;99.90;;;;;;5090971;28;20007;-72
2023/04/30 06:57:40;;;;;;;;;;;9.10;99.90;;;;;;5096124;28;20444;-72
2023/04/30 07:00:06;;;;;;;;;;;9.20;99.90;;;;;;5091335;28;20011;-72
2023/04/30 07:02:31;;;;;;;;;;;9.30;99.90;;;;;;5091850;28;20355;-71
2023/04/30 07:04:57;;;;;;;;;;;9.30;99.90;;;;;;5092315;28;20038;-72
2023/04/30 07:07:23;;;;;;;;;;;9.40;99.90;;;;;;5091780;28;20305;-72
2023/04/30 07:09:49;;;;;;;;;;;9.50;99.90;;;;;;5092029;28;20456;-71
2023/04/30 07:12:14;;;;;;;;;;;9.60;99.90;;;;;;5089138;28;20097;-73
2023/04/30 07:14:40;;;;;;;;;;;9.70;99.90;;;;;;5091304;28;20360;-73
2023/04/30 07:17:06;;;;;;;;;;;9.80;99.90;;;;;;5084867;28;19931;-73
2023/04/30 07:19:31;;;;;;;;;;;9.80;99.90;;;;;;5091246;28;19932;-73
2023/04/30 07:21:57;;;;;;;;;;;9.90;99.90;;;;;;5087770;28;19975;-73
2023/04/30 07:24:22;;;;;;;;;;;10.00;99.90;;;;;;5086958;28;19969;-73
2023/04/30 07:26:48;;;;;;;;;;;10.00;99.90;;;;;;5078867;28;20011;-73
2023/04/30 07:29:13;;;;;;;;;;;10.10;99.90;;;;;;5080596;28;20375;-73
2023/04/30 07:31:39;;;;;;;;;;;10.10;99.90;;;;;;5088820;28;20026;-73
2023/04/30 07:34:04;;;;;;;;;;;10.10;99.90;;;;;;5082791;28;19932;-73
2023/04/30 07:36:30;;;;;;;;;;;10.20;99.90;;;;;;5089421;28;19928;-73
2023/04/30 07:38:55;;;;;;;;;;;10.20;99.90;;;;;;5082124;28;19928;-73
2023/04/30 07:41:22;;;;;;;;;;;10.40;99.90;;;;;;5082193;28;19931;-73
2023/04/30 07:43:48;;;;;;;;;;;10.40;99.90;;;;;;5083226;28;19932;-74
2023/04/30 07:46:13;;;;;;;;;;;10.50;99.90;;;;;;5084313;28;19924;-73
2023/04/30 07:48:40;;;;;;;;;;;10.60;99.90;;;;;;5084519;28;19928;-73
2023/04/30 07:51:05;;;;;;;;;;;10.60;99.90;;;;;;5074515;28;20357;-74
2023/04/30 07:53:31;;;;;;;;;;;10.50;99.90;;;;;;5084389;28;19929;-73
2023/04/30 07:55:56;;;;;;;;;;;10.40;99.90;;;;;;5091137;28;20344;-73
2023/04/30 07:58:22;;;;;;;;;;;10.50;99.90;;;;;;5082928;28;20751;-73
2023/04/30 08:00:47;;;;;;;;;;;10.50;99.90;;;;;;5081270;28;20368;-73
2023/04/30 08:03:13;;;;;;;;;;;10.60;99.90;;;;;;5071573;28;20310;-73
2023/04/30 08:05:40;;;;;;;;;;;10.60;99.90;;;;;;5091749;28;19924;-73
2023/04/30 08:08:05;;;;;;;;;;;10.80;99.90;;;;;;5090785;28;19925;-73
2023/04/30 08:10:31;;;;;;;;;;;10.80;99.90;;;;;;5090805;28;19935;-73
2023/04/30 08:12:56;;;;;;;;;;;10.80;99.90;;;;;;5093567;28;19947;-73
2023/04/30 08:15:22;;;;;;;;;;;11.00;99.90;;;;;;5089823;28;20049;-71
2023/04/30 08:17:51;;;;;;;;;;;11.00;99.90;;;;;;5091636;28;19967;-72
2023/04/30 08:20:17;;;;;;;;;;;11.10;99.90;;;;;;5091338;28;19928;-73
2023/04/30 08:22:43;;;;;;;;;;;11.10;99.90;;;;;;5091738;28;19928;-73
2023/04/30 08:25:11;;;;;;;;;;;11.20;99.90;;;;;;5089105;28;19981;-73
2023/04/30 08:27:38;;;;;;;;;;;11.20;99.90;;;;;;5095495;28;19928;-73
2023/04/30 08:30:04;;;;;;;;;;;11.40;99.90;;;;;;5095546;28;19930;-73
2023/04/30 08:32:30;;;;;;;;;;;11.40;99.90;;;;;;5096569;28;19930;-73
2023/04/30 08:34:55;;;;;;;;;;;11.50;99.90;;;;;;5074588;28;20298;-73
2023/04/30 08:37:21;;;;;;;;;;;11.50;99.90;;;;;;5095405;28;19948;-73
2023/04/30 08:39:46;;;;;;;;;;;11.70;99.90;;;;;;5095222;28;20305;-73
2023/04/30 08:42:13;;;;;;;;;;;11.80;99.90;;;;;;5092206;28;19983;-73
2023/04/30 08:44:42;;;;;;;;;;;11.90;99.90;;;;;;5090628;28;19924;-73
2023/04/30 08:47:09;;;;;;;;;;;12.00;99.90;;;;;;5097545;28;19928;-73
2023/04/30 08:49:35;;;;;;;;;;;12.00;99.90;;;;;;5095995;28;20420;-73
2023/04/30 08:52:01;;;;;;;;;;;11.90;99.90;;;;;;5097933;28;19924;-73
2023/04/30 08:54:29;;;;;;;;;;;12.00;99.90;;;;;;5074788;28;19931;-73
2023/04/30 08:56:55;;;;;;;;;;;12.10;99.90;;;;;;5097140;28;19924;-73
2023/04/30 08:59:20;;;;;;;;;;;12.10;99.90;;;;;;5091108;28;19946;-73
2023/04/30 09:01:46;;;;;;;;;;;12.20;99.90;;;;;;5089874;28;20553;-73
2023/04/30 09:04:11;;;;;;;;;;;12.20;99.90;;;;;;5089083;28;19973;-73
2023/04/30 09:06:37;;;;;;;;;;;12.20;99.90;;;;;;5089326;28;19931;-73
2023/04/30 09:09:11;;;;;;;;;;;12.30;99.90;;;;;;5072807;28;19935;-73
2023/04/30 09:11:37;;;;;;;;;;;12.30;99.90;;;;;;5089977;28;20006;-73
2023/04/30 09:14:02;;;;;;;;;;;12.40;99.90;;;;;;5090085;28;20018;-73
2023/04/30 09:16:48;;;;;;;;;;;12.40;99.90;;;;;;5089461;28;20351;-73
2023/04/30 09:19:24;;;;;;;;;;;12.50;99.90;;;;;;5102787;28;19955;-73
2023/04/30 09:21:49;;;;;;;;;;;12.60;99.90;;;;;;5089719;28;19928;-73
2023/04/30 09:24:15;;;;;;;;;;;12.70;99.90;;;;;;5089672;28;20476;-73
2023/04/30 09:26:42;;;;;;;;;;;12.80;99.90;;;;;;5096686;28;19931;-73
2023/04/30 09:29:09;;;;;;;;;;;12.80;99.90;;;;;;5089653;28;19924;-73
2023/04/30 09:31:38;;;;;;;;;;;13.00;99.90;;;;;;5091867;28;19970;-73
2023/04/30 09:34:03;;;;;;;;;;;13.20;99.90;;;;;;5090645;28;20290;-73
2023/04/30 09:36:30;;;;;;;;;;;13.20;99.90;;;;;;5089237;28;19928;-73
2023/04/30 09:38:56;;;;;;;;;;;13.20;99.90;;;;;;5099451;28;19972;-73
2023/04/30 09:41:26;;;;;;;;;;;13.30;99.90;;;;;;5094239;28;19924;-73
2023/04/30 09:43:54;;;;;;;;;;;13.30;99.90;;;;;;5096363;28;19939;-73
2023/04/30 09:46:21;;;;;;;;;;;13.30;99.90;;;;;;5093729;28;19998;-73
2023/04/30 09:48:54;;;;;;;;;;;13.40;99.90;;;;;;5093968;28;19923;-73
2023/04/30 09:51:20;;;;;;;;;;;13.40;99.90;;;;;;5097537;28;19970;-74
2023/04/30 09:53:46;;;;;;;;;;;13.50;99.90;;;;;;5096547;28;20016;-73
2023/04/30 09:56:14;;;;;;;;;;;13.60;99.90;;;;;;5089012;28;20457;-74
2023/04/30 09:58:42;;;;;;;;;;;13.80;99.90;;;;;;5091809;28;19947;-74
2023/04/30 10:01:10;;;;;;;;;;;13.90;99.90;;;;;;5089539;28;19966;-73
2023/04/30 10:03:37;;;;;;;;;;;14.10;99.90;;;;;;5093273;28;19924;-71
2023/04/30 10:06:03;;;;;;;;;;;14.40;99.90;;;;;;5088853;28;19928;-72
2023/04/30 10:08:42;;;;;;;;;;;14.60;99.90;;;;;;5089294;28;19928;-73
2023/04/30 10:11:08;;;;;;;;;;;14.90;99.90;;;;;;5087039;28;19974;-72
2023/04/30 10:13:46;;;;;;;;;;;15.10;99.90;;;;;;5093320;28;19924;-73
2023/04/30 10:16:19;;;;;;;;;;;15.20;99.90;;;;;;5084108;28;20024;-73
2023/04/30 10:18:45;;;;;;;;;;;15.30;99.90;;;;;;5085089;28;20045;-73
2023/04/30 10:21:13;;;;;;;;;;;15.50;99.90;;;;;;5096377;28;19932;-74
2023/04/30 10:23:42;;;;;;;;;;;15.70;99.90;;;;;;5095893;28;20087;-73
2023/04/30 10:26:09;;;;;;;;;;;15.80;99.90;;;;;;5097498;28;19946;-73
2023/04/30 10:28:35;;;;;;;;;;;16.00;99.90;;;;;;5094914;28;20038;-74
2023/04/30 10:31:02;;;;;;;;;;;16.50;99.90;;;;;;5079730;28;20415;-73
2023/04/30 10:33:33;;;;;;;;;;;16.90;99.90;;;;;;5076902;28;20428;-74
2023/04/30 10:36:00;;;;;;;;;;;17.20;97.40;;;;;;5096716;28;19934;-74
2023/04/30 10:38:28;;;;;;;4.82;1.17;;;17.30;97.40;;;;;;5092562;28;19928;-73
2023/04/30 10:40:56;;;;;;;;;;;17.40;98.30;;;;;;5079835;28;20046;-74
2023/04/30 10:43:22;;;;;;;;;;;17.60;96.70;;;;;;5090519;28;19920;-74
2023/04/30 10:45:48;;;;;;;;;;;17.70;95.10;;;;;;5093191;28;19920;-74
2023/04/30 10:48:14;;;;;;;;;;;17.60;94.40;;;;;;5092954;28;19947;-74
2023/04/30 10:50:45;;;;;;;;;;;17.50;93.80;;;;;;5097537;28;19919;-73
2023/04/30 10:53:12;;;;;;;;;;;17.40;92.60;;;;;;5092950;28;19924;-74
2023/04/30 10:55:45;;;;;;;;;;;17.50;90.70;;;;;;5094024;28;20006;-74
2023/04/30 10:58:22;;;;;;;;;;;17.60;92.60;;;;;;5096375;28;19924;-74
2023/04/30 11:00:50;;;;;;;;;;;17.90;91.20;;;;;;5092024;28;19920;-74
2023/04/30 11:03:15;;;;;;;;;;;18.10;90.70;;;;;;5095662;28;19981;-74
2023/04/30 11:05:41;;;;;;;;;;;18.30;90.90;;;;;;5098068;28;20418;-74
2023/04/30 11:08:10;;;;;;;;;;;18.40;87.80;;;;;;5096698;28;20046;-74
2023/04/30 11:10:35;;;;;;;;;;;18.30;87.10;;;;;;5098029;28;19920;-74
2023/04/30 11:13:05;;;;;;;;;;;18.50;90.40;;;;;;5095725;28;19920;-74
2023/04/30 11:15:33;;;;;;;;;;;18.90;90.90;;;;;;5096016;28;19958;-74
2023/04/30 11:17:58;;;;;;;;;;;19.20;89.00;;;;;;5098217;28;19927;-74
2023/04/30 11:20:24;;;;;;;;;;;19.30;89.00;;;;;;5079376;28;19924;-74
2023/04/30 11:23:09;;;;;;;;;;;19.30;84.50;;;;;;5098604;28;20347;-74
2023/04/30 11:25:41;;;;;;;;;;;19.30;83.40;;;;;;5095372;28;19970;-74
2023/04/30 11:28:11;;;;;;;;;;;19.20;82.80;;;;;;5101074;28;19995;-74
2023/04/30 11:30:37;;;;;;;;;;;19.30;85.90;;;;;;5096422;28;19941;-74
2023/04/30 11:33:03;;;;;;;4.00;1.48;;;19.50;84.60;;;;;;5096542;28;20010;-74
2023/04/30 11:35:30;;;;;;;5.55;1.30;;;19.60;83.20;;;;;;5095278;28;20811;-74
2023/04/30 11:37:57;;;;;;;6.30;1.70;;;19.60;83.10;;;;;;5096342;28;20392;-74
2023/04/30 11:40:22;;;;;;;6.15;1.73;;;19.60;82.40;;;;;;5094961;28;20927;-74
2023/04/30 11:42:48;;;;;;;5.40;1.80;;;19.70;84.80;;;;;;5102407;28;20400;-74
2023/04/30 11:45:22;;;;;;;7.53;2.30;;;19.90;85.10;;;;;;5093971;28;20402;-74
2023/04/30 11:47:50;;;;;;;5.75;1.35;;;20.10;83.50;;;;;;5100650;28;20771;-74
2023/04/30 11:50:25;;;;;;;6.85;2.47;;;20.10;81.00;;;;;;5090029;28;20430;-74
2023/04/30 11:52:53;;;;;;;5.82;1.95;;;20.20;80.00;;;;;;5100483;27;20190;-74
2023/04/30 11:55:19;;;;;;;;;;;20.20;83.00;;;;;;5098641;28;20425;-74
2023/04/30 11:57:50;;;;;;;4.85;1.50;;;20.30;81.10;;;;;;5097562;28;20007;-74
2023/04/30 12:00:18;;;;;;;4.57;1.98;;;20.50;82.30;;;;;;5088910;28;20537;-74
2023/04/30 12:02:46;;;;;;;5.60;1.63;;;20.70;82.60;;;;;;5088958;28;20406;-74
2023/04/30 12:05:25;;;;;;;4.45;1.65;;;20.80;82.90;;;;;;5087891;28;20536;-74
2023/04/30 12:07:55;;;;;;;4.25;1.80;;;21.00;80.50;;;;;;5087544;28;20409;-74
2023/04/30 12:10:21;;;;;;;6.10;1.98;;;20.90;80.10;;;;;;5088359;28;20802;-74
2023/04/30 12:12:49;;;;;;;4.88;1.70;;;21.10;82.20;;;;;;5089130;28;20410;-74
2023/04/30 12:15:16;;;;;;;;;;;21.20;80.80;;;;;;5067255;28;20126;-74
2023/04/30 12:17:42;;;;;;;;;;;21.30;80.60;;;;;;5090983;28;19924;-74
2023/04/30 12:20:08;;;;;;;;;;;21.30;80.60;;;;;;5091677;28;19927;-74
2023/04/30 12:22:34;;;;;;;;;;;21.20;80.10;;;;;;5091061;28;20309;-74
2023/04/30 12:25:04;;;;;;;;;;;21.20;78.90;;;;;;5090861;28;19920;-74
2023/04/30 12:27:30;;;;;;;;;;;21.20;79.70;;;;;;5090386;28;19966;-74
2023/04/30 12:29:56;;;;;;;;;;;21.20;80.70;;;;;;5089057;28;21081;-74
2023/04/30 12:32:21;;;;;;;;;;;21.20;78.20;;;;;;5089476;28;20011;-75
2023/04/30 12:34:47;;;;;;;;;;;21.20;80.10;;;;;;5090136;28;19954;-74
2023/04/30 12:37:16;;;;;;;;;;;21.20;79.30;;;;;;5089551;28;19928;-76
2023/04/30 12:39:42;;;;;;;;;;;21.10;79.70;;;;;;5096263;28;19920;-74
2023/04/30 12:42:07;;;;;;;;;;;21.10;80.10;;;;;;5097639;28;20343;-74
2023/04/30 12:44:41;;;;;;;;;;;21.20;76.70;;;;;;5097471;28;19923;-73
2023/04/30 12:47:06;;;;;;;;;;;21.20;79.10;;;;;;5093115;28;19927;-74
2023/04/30 12:49:33;;;;;;;;;;;21.30;77.70;;;;;;5089234;28;19928;-74
2023/04/30 12:52:07;;;;;;;;;;;21.40;76.20;;;;;;5089797;28;20402;-73
2023/04/30 12:54:33;;;;;;;;;;;21.50;78.60;;;;;;5071575;28;19973;-74
2023/04/30 12:57:03;;;;;;;;;;;21.70;78.00;;;;;;5091799;28;20018;-74
2023/04/30 12:59:29;;;;;;;;;;;21.90;77.20;;;;;;5079738;28;19920;-73
2023/04/30 13:01:55;;;;;;;;;;;22.00;77.90;;;;;;5071826;28;20382;-73
2023/04/30 13:04:20;;;;;;;;;;;22.10;77.30;;;;;;5086865;28;20394;-74
2023/04/30 13:06:46;;;;;;;;;;;22.20;76.10;;;;;;5090403;28;19978;-74
2023/04/30 13:09:12;;;;;;;;;;;22.20;77.40;;;;;;5072270;28;20380;-74
2023/04/30 13:11:37;;;;;;;;;;;22.30;77.80;;;;;;5090327;28;19934;-74
2023/04/30 13:14:03;;;;;;;;;;;22.50;73.70;;;;;;5090304;28;19920;-74
2023/04/30 13:16:29;;;;;;;8.15;1.52;;;22.50;75.70;;;;;;5090492;28;19920;-74
2023/04/30 13:18:55;;;;;;;3.72;1.20;;;22.70;76.20;;;;;;5090507;28;20044;-74
2023/04/30 13:21:21;;;;;;;4.88;1.40;;;22.90;72.40;;;;;;5088619;28;20456;-74
2023/04/30 13:23:47;;;;;;;4.90;1.17;;;22.90;74.40;;;;;;5090118;28;20040;-74
2023/04/30 13:26:13;;;;;;;5.47;1.23;;;23.00;74.90;;;;;;5089651;28;20058;-74
2023/04/30 13:28:39;;;;;;;5.32;1.08;;;23.20;73.40;;;;;;5088451;28;20170;-74
2023/04/30 13:31:04;;;;;;;7.15;1.38;;;23.40;71.80;;;;;;5090900;28;20055;-74
2023/04/30 13:33:30;;;;;;;;;;;23.70;74.00;;;;;;5090295;28;20116;-74
2023/04/30 13:35:55;;;;;;;;;;;23.80;73.20;;;;;;5089534;28;19943;-74
2023/04/30 13:38:21;;;;;;;;;;;23.90;67.60;;;;;;5090475;28;19924;-74
2023/04/30 13:40:46;;;;;;;;;;;23.90;70.80;;;;;;5089014;28;20025;-74
2023/04/30 13:43:12;;;;;;;;;;;23.80;68.10;;;;;;5087733;28;19924;-74
2023/04/30 13:45:37;;;;;;;;;;;23.80;67.50;;;;;;5090933;28;20325;-71
2023/04/30 13:48:03;;;;;;;;;;;23.90;69.50;;;;;;5090466;28;19939;-72
2023/04/30 13:50:29;;;;;;;;;;;24.00;67.30;;;;;;5090247;28;20389;-72
2023/04/30 13:52:54;;;;;;;;;;;24.10;67.00;;;;;;5086009;28;19939;-73
2023/04/30 13:55:21;;;;;;;;;;;24.10;66.20;;;;;;5081546;28;19920;-74
2023/04/30 13:57:46;;;;;;;;;;;24.10;65.70;;;;;;5085979;28;19920;-73
2023/04/30 14:00:12;;;;;;;;;;;24.10;65.00;;;;;;5089757;28;20290;-74
2023/04/30 14:02:38;;;;;;;;;;;24.20;63.80;;;;;;5090432;28;19924;-73
2023/04/30 14:05:03;;;;;;;;;;;24.40;66.20;;;;;;5089693;28;19927;-73
2023/04/30 14:07:29;;;;;;;;;;;24.60;63.80;;;;;;5071018;28;20473;-73
2023/04/30 14:09:55;;;;;;;;;;;24.80;64.00;;;;;;5088425;28;19967;-73
2023/04/30 14:12:22;;;;;;;;;;;25.00;63.80;;;;;;5088105;28;19927;-72